createdAt,value
2022-10-22T00:01:15.286Z,8.40
2022-10-22T00:03:43.659Z,8.43
2022-10-22T00:06:12.184Z,8.43
2022-10-22T00:08:40.772Z,8.43
2022-10-22T00:11:17.766Z,8.43
2022-10-22T00:16:20.005Z,8.46
2022-10-22T00:18:48.325Z,8.45
2022-10-22T00:21:16.758Z,8.45
2022-10-22T00:23:45.410Z,8.44
2022-10-22T00:26:13.741Z,8.44
2022-10-22T00:28:42.067Z,8.43
2022-10-22T00:31:10.193Z,8.36
2022-10-22T00:33:38.570Z,8.42
2022-10-22T00:36:06.998Z,8.32
2022-10-22T00:38:35.558Z,8.40
2022-10-22T00:41:03.881Z,8.41
2022-10-22T00:43:32.033Z,8.41
2022-10-22T00:46:00.151Z,8.40
2022-10-22T00:48:35.854Z,8.41
2022-10-22T00:51:08.394Z,8.43
2022-10-22T00:53:41.486Z,8.44
2022-10-22T00:56:10.526Z,8.45
2022-10-22T00:58:43.871Z,8.46
2022-10-22T01:01:17.122Z,8.37
2022-10-22T01:03:45.416Z,8.47
2022-10-22T01:06:21.779Z,8.48
2022-10-22T01:09:16.073Z,8.49
2022-10-22T01:11:53.835Z,8.36
2022-10-22T01:14:26.527Z,8.47
2022-10-22T01:17:03.174Z,8.47
2022-10-22T01:19:40.119Z,8.48
2022-10-22T01:22:31.386Z,8.49
2022-10-22T01:25:10.792Z,8.48
2022-10-22T01:27:55.872Z,8.36
2022-10-22T01:30:25.472Z,8.45
2022-10-22T01:32:59.451Z,8.44
2022-10-22T01:38:05.164Z,8.30
2022-10-22T01:40:35.419Z,8.38
2022-10-22T01:43:08.799Z,8.38
2022-10-22T01:45:43.594Z,8.38
2022-10-22T01:48:29.495Z,8.34
2022-10-22T01:51:25.844Z,8.15
2022-10-22T01:54:08.068Z,8.27
2022-10-22T01:56:41.062Z,8.32
2022-10-22T01:59:34.119Z,8.32
2022-10-22T02:02:02.120Z,8.32
2022-10-22T02:04:35.774Z,8.31
2022-10-22T02:07:06.527Z,8.31
2022-10-22T02:09:36.189Z,8.27
2022-10-22T02:12:08.496Z,8.25
2022-10-22T02:14:39.645Z,8.26
2022-10-22T02:17:13.119Z,8.25
2022-10-22T02:19:48.551Z,8.26
2022-10-22T02:22:17.059Z,8.25
2022-10-22T02:24:45.252Z,8.15
2022-10-22T02:27:24.215Z,8.18
2022-10-22T02:29:54.951Z,8.28
2022-10-22T02:32:28.643Z,8.28
2022-10-22T02:34:57.135Z,8.29
2022-10-22T02:37:26.248Z,8.29
2022-10-22T02:39:56.380Z,8.29
2022-10-22T02:42:26.485Z,8.29
2022-10-22T02:44:54.935Z,8.28
2022-10-22T02:47:23.371Z,8.28
2022-10-22T02:49:51.725Z,8.27
2022-10-22T02:52:19.987Z,8.26
2022-10-22T02:54:48.150Z,8.26
2022-10-22T02:57:16.241Z,8.25
2022-10-22T02:59:44.649Z,8.24
2022-10-22T03:02:12.744Z,8.23
2022-10-22T03:04:42.274Z,8.22
2022-10-22T03:07:10.977Z,8.20
2022-10-22T03:09:39.236Z,8.19
2022-10-22T03:12:08.777Z,8.20
2022-10-22T03:14:36.824Z,8.20
2022-10-22T03:17:04.994Z,8.20
2022-10-22T03:19:33.055Z,8.19
2022-10-22T03:22:05.026Z,8.18
2022-10-22T03:24:40.108Z,8.17
2022-10-22T03:27:08.757Z,8.08
2022-10-22T03:29:39.380Z,8.17
2022-10-22T03:32:07.734Z,8.17
2022-10-22T03:34:35.821Z,8.18
2022-10-22T03:37:03.904Z,8.11
2022-10-22T03:39:34.628Z,8.18
2022-10-22T03:42:04.872Z,8.19
2022-10-22T03:44:33.176Z,8.19
2022-10-22T03:47:02.703Z,8.20
2022-10-22T03:49:31.057Z,8.20
2022-10-22T03:52:04.832Z,8.11
2022-10-22T03:54:32.870Z,8.19
2022-10-22T03:57:00.911Z,8.19
2022-10-22T03:59:28.951Z,8.09
2022-10-22T04:01:57.105Z,8.18
2022-10-22T04:04:25.187Z,8.18
2022-10-22T04:06:53.219Z,8.19
2022-10-22T04:09:21.252Z,8.19
2022-10-22T04:11:49.323Z,8.17
2022-10-22T04:14:17.449Z,8.14
2022-10-22T04:16:45.463Z,8.12
2022-10-22T04:19:13.732Z,8.10
2022-10-22T04:21:42.122Z,8.09
2022-10-22T04:24:10.231Z,8.09
2022-10-22T04:26:38.217Z,8.10
2022-10-22T04:29:11.907Z,8.08
2022-10-22T04:31:43.383Z,8.09
2022-10-22T04:34:11.431Z,8.08
2022-10-22T04:36:39.485Z,8.09
2022-10-22T04:39:07.487Z,8.09
2022-10-22T04:41:38.432Z,8.08
2022-10-22T04:44:10.949Z,8.06
2022-10-22T04:46:44.175Z,8.08
2022-10-22T04:49:12.242Z,8.07
2022-10-22T04:51:40.330Z,8.07
2022-10-22T04:54:08.403Z,8.05
2022-10-22T04:56:36.520Z,8.06
2022-10-22T04:59:06.932Z,8.07
2022-10-22T05:01:41.599Z,8.08
2022-10-22T05:04:15.169Z,8.10
2022-10-22T05:06:43.852Z,8.09
2022-10-22T05:09:18.151Z,8.08
2022-10-22T05:11:49.186Z,8.08
2022-10-22T05:14:25.331Z,8.06
2022-10-22T05:16:54.055Z,8.05
2022-10-22T05:19:25.076Z,8.05
2022-10-22T05:21:56.193Z,8.06
2022-10-22T05:24:24.751Z,8.06
2022-10-22T05:26:54.876Z,8.06
2022-10-22T05:29:23.708Z,8.06
2022-10-22T05:31:53.312Z,7.98
2022-10-22T05:34:21.584Z,8.11
2022-10-22T05:36:49.794Z,8.13
2022-10-22T05:39:17.872Z,8.15
2022-10-22T05:41:45.948Z,8.15
2022-10-22T05:44:14.019Z,8.14
2022-10-22T05:46:43.534Z,8.14
2022-10-22T05:49:14.717Z,8.13
2022-10-22T05:51:43.010Z,8.13
2022-10-22T05:54:19.735Z,8.14
2022-10-22T05:56:48.224Z,8.16
2022-10-22T05:59:16.292Z,8.17
2022-10-22T06:01:44.518Z,8.17
2022-10-22T06:04:13.620Z,8.17
2022-10-22T06:06:47.824Z,8.19
2022-10-22T06:09:21.455Z,8.20
2022-10-22T06:11:50.835Z,8.23
2022-10-22T06:14:19.459Z,8.22
2022-10-22T06:16:48.127Z,8.23
2022-10-22T06:19:19.189Z,8.24
2022-10-22T06:21:48.566Z,8.25
2022-10-22T06:24:16.736Z,8.28
2022-10-22T06:26:45.569Z,8.31
2022-10-22T06:29:13.658Z,8.33
2022-10-22T06:31:41.776Z,8.35
2022-10-22T06:34:13.390Z,8.37
2022-10-22T06:36:42.925Z,8.39
2022-10-22T06:39:16.565Z,8.41
2022-10-22T06:41:44.790Z,8.44
2022-10-22T06:44:18.389Z,8.46
2022-10-22T06:46:49.101Z,8.48
2022-10-22T06:49:17.349Z,8.49
2022-10-22T06:51:46.526Z,8.51
2022-10-22T06:54:15.604Z,8.50
2022-10-22T06:56:44.109Z,8.33
2022-10-22T06:59:12.371Z,8.48
2022-10-22T07:01:40.989Z,8.61
2022-10-22T07:04:11.657Z,8.64
2022-10-22T07:06:39.821Z,8.65
2022-10-22T07:09:08.535Z,8.69
2022-10-22T07:11:43.612Z,8.73
2022-10-22T07:14:13.436Z,8.75
2022-10-22T07:16:45.892Z,8.69
2022-10-22T07:19:15.179Z,8.81
2022-10-22T07:21:43.702Z,8.83
2022-10-22T07:24:12.073Z,8.85
2022-10-22T07:26:40.559Z,8.85
2022-10-22T07:29:09.876Z,8.85
2022-10-22T07:31:38.175Z,8.87
2022-10-22T07:34:06.386Z,8.88
2022-10-22T07:36:34.701Z,8.88
2022-10-22T07:39:04.181Z,8.89
2022-10-22T07:41:32.489Z,8.91
2022-10-22T07:44:00.758Z,8.91
2022-10-22T07:46:29.121Z,8.90
2022-10-22T07:48:57.449Z,8.89
2022-10-22T07:51:26.361Z,8.92
2022-10-22T07:53:54.712Z,8.92
2022-10-22T07:56:23.074Z,8.93
2022-10-22T07:58:51.417Z,8.97
2022-10-22T08:01:19.743Z,8.91
2022-10-22T08:03:49.168Z,9.08
2022-10-22T08:06:17.953Z,9.11
2022-10-22T08:08:46.637Z,9.16
2022-10-22T08:11:15.392Z,9.19
2022-10-22T08:13:45.644Z,9.24
2022-10-22T08:16:15.295Z,9.28
2022-10-22T08:18:43.621Z,9.29
2022-10-22T08:21:13.249Z,9.37
2022-10-22T08:23:41.620Z,9.39
2022-10-22T08:26:10.881Z,9.46
2022-10-22T08:28:39.289Z,9.48
2022-10-22T08:31:08.625Z,9.52
2022-10-22T08:33:39.630Z,9.47
2022-10-22T08:36:08.777Z,9.62
2022-10-22T08:38:37.618Z,9.66
2022-10-22T08:41:22.697Z,9.67
2022-10-22T08:43:53.693Z,9.73
2022-10-22T08:46:52.758Z,9.70
2022-10-22T08:49:30.509Z,9.67
2022-10-22T08:51:59.753Z,9.66
2022-10-22T08:54:41.882Z,9.66
2022-10-22T08:57:09.910Z,9.64
2022-10-22T08:59:46.159Z,9.49
2022-10-22T09:02:33.818Z,9.56
2022-10-22T09:05:20.597Z,9.55
2022-10-22T09:07:50.515Z,9.58
2022-10-22T09:10:21.932Z,9.61
2022-10-22T09:12:50.866Z,9.65
2022-10-22T09:15:19.641Z,9.61
2022-10-22T09:18:19.834Z,9.65
2022-10-22T09:20:56.613Z,9.74
2022-10-22T09:24:13.982Z,9.78
2022-10-22T09:26:42.661Z,9.82
2022-10-22T09:29:20.065Z,9.84
2022-10-22T09:31:48.439Z,9.82
2022-10-22T09:34:21.604Z,9.78
2022-10-22T09:37:05.706Z,9.74
2022-10-22T09:39:40.258Z,9.70
2022-10-22T09:42:08.654Z,9.69
2022-10-22T09:44:38.157Z,9.64
2022-10-22T09:47:08.094Z,9.69
2022-10-22T09:49:36.765Z,9.71
2022-10-22T09:52:29.013Z,9.72
2022-10-22T09:54:57.493Z,9.72
2022-10-22T09:57:26.669Z,9.72
2022-10-22T09:59:55.556Z,9.72
2022-10-22T10:02:44.016Z,9.72
2022-10-22T10:05:21.328Z,9.73
2022-10-22T10:07:49.549Z,9.75
2022-10-22T10:10:48.348Z,9.77
2022-10-22T10:13:16.479Z,9.78
2022-10-22T10:16:04.650Z,9.74
2022-10-22T10:18:45.111Z,9.86
2022-10-22T10:21:45.541Z,9.88
2022-10-22T10:24:28.600Z,9.89
2022-10-22T10:27:12.640Z,9.92
2022-10-22T10:30:14.338Z,9.94
2022-10-22T10:33:05.728Z,9.93
2022-10-22T10:35:42.544Z,9.95
2022-10-22T10:38:28.853Z,9.97
2022-10-22T10:41:08.767Z,9.99
2022-10-22T10:44:04.432Z,10.01
2022-10-22T10:46:50.633Z,10.02
2022-10-22T10:49:26.458Z,10.04
2022-10-22T10:52:21.215Z,10.08
2022-10-22T10:54:54.984Z,10.12
2022-10-22T10:57:32.116Z,10.14
2022-10-22T11:00:15.709Z,10.16
2022-10-22T11:03:01.396Z,10.19
2022-10-22T11:05:44.597Z,10.22
2022-10-22T11:08:28.916Z,10.26
2022-10-22T11:11:06.724Z,10.31
2022-10-22T11:13:43.461Z,10.36
2022-10-22T11:16:31.356Z,10.39
2022-10-22T11:19:10.070Z,10.43
2022-10-22T11:21:50.001Z,10.47
2022-10-22T11:24:28.007Z,10.51
2022-10-22T11:27:06.513Z,10.55
2022-10-22T11:29:44.255Z,10.54
2022-10-22T11:32:19.013Z,10.47
2022-10-22T11:34:51.046Z,10.58
2022-10-22T11:37:19.504Z,10.60
2022-10-22T11:40:23.453Z,10.61
2022-10-22T11:42:58.900Z,10.60
2022-10-22T11:45:30.680Z,10.57
2022-10-22T11:48:10.815Z,10.55
2022-10-22T11:50:41.496Z,10.54
2022-10-22T11:53:12.661Z,10.55
2022-10-22T11:55:48.341Z,10.55
2022-10-22T11:58:27.200Z,10.51
2022-10-22T12:01:10.249Z,10.49
2022-10-22T12:03:44.049Z,10.50
2022-10-22T12:06:19.844Z,10.50
2022-10-22T12:09:01.921Z,10.53
2022-10-22T12:11:40.697Z,10.55
2022-10-22T12:14:32.460Z,10.55
2022-10-22T12:17:15.952Z,10.56
2022-10-22T12:19:46.620Z,10.57
2022-10-22T12:22:21.861Z,10.57
2022-10-22T12:24:52.916Z,10.57
2022-10-22T12:27:22.716Z,10.53
2022-10-22T12:29:59.414Z,10.57
2022-10-22T12:32:37.478Z,10.59
2022-10-22T12:35:17.613Z,10.60
2022-10-22T12:37:50.240Z,10.61
2022-10-22T12:40:26.342Z,10.62
2022-10-22T12:43:01.751Z,10.63
2022-10-22T12:45:33.268Z,10.63
2022-10-22T12:48:06.420Z,10.64
2022-10-22T12:50:40.439Z,10.61
2022-10-22T12:53:18.705Z,10.68
2022-10-22T12:55:50.107Z,10.68
2022-10-22T12:58:22.607Z,10.70
2022-10-22T13:00:57.615Z,10.71
2022-10-22T13:03:51.354Z,10.73
2022-10-22T13:06:19.587Z,10.74
2022-10-22T13:09:00.101Z,10.76
2022-10-22T13:11:42.990Z,10.77
2022-10-22T13:14:30.339Z,10.80
2022-10-22T13:17:09.952Z,10.81
2022-10-22T13:19:44.830Z,10.81
2022-10-22T13:22:29.024Z,10.82
2022-10-22T13:25:00.134Z,10.82
2022-10-22T13:27:29.375Z,10.83
2022-10-22T13:30:03.847Z,10.85
2022-10-22T13:32:34.193Z,10.85
2022-10-22T13:35:03.762Z,10.85
2022-10-22T13:37:34.433Z,10.85
2022-10-22T13:40:02.713Z,10.86
2022-10-22T13:42:31.277Z,10.88
2022-10-22T13:44:59.653Z,10.90
2022-10-22T13:47:29.642Z,10.83
2022-10-22T13:50:01.097Z,10.93
2022-10-22T13:52:32.266Z,10.88
2022-10-22T13:55:00.604Z,10.95
2022-10-22T13:57:28.831Z,10.95
2022-10-22T13:59:57.176Z,10.96
2022-10-22T14:02:25.696Z,10.97
2022-10-22T14:04:54.132Z,10.97
2022-10-22T14:07:22.469Z,10.99
2022-10-22T14:09:50.640Z,11.01
2022-10-22T14:12:18.764Z,11.03
2022-10-22T14:14:47.006Z,10.98
2022-10-22T14:17:17.555Z,11.06
2022-10-22T14:19:47.868Z,11.08
2022-10-22T14:22:20.154Z,11.08
2022-10-22T14:24:48.234Z,11.08
2022-10-22T14:27:16.364Z,11.07
2022-10-22T14:29:44.450Z,11.08
2022-10-22T14:32:15.051Z,11.11
2022-10-22T14:34:43.743Z,11.11
2022-10-22T14:37:19.966Z,11.12
2022-10-22T14:39:52.109Z,11.12
2022-10-22T14:42:20.289Z,11.12
2022-10-22T14:44:48.394Z,11.12
2022-10-22T14:47:16.559Z,11.14
2022-10-22T14:49:44.903Z,11.15
2022-10-22T14:52:14.916Z,11.15
2022-10-22T14:54:43.563Z,11.16
2022-10-22T14:57:12.324Z,11.15
2022-10-22T14:59:41.560Z,11.12
2022-10-22T15:02:13.970Z,11.16
2022-10-22T15:04:42.106Z,11.17
2022-10-22T15:07:10.232Z,11.18
2022-10-22T15:09:38.529Z,11.19
2022-10-22T15:12:06.872Z,11.20
2022-10-22T15:14:35.134Z,11.21
2022-10-22T15:17:03.376Z,10.90
2022-10-22T15:19:31.745Z,11.11
2022-10-22T15:22:00.070Z,11.20
2022-10-22T15:24:28.180Z,11.06
2022-10-22T15:26:56.329Z,11.19
2022-10-22T15:29:24.921Z,11.19
2022-10-22T15:31:57.912Z,11.19
2022-10-22T15:34:34.644Z,11.20
2022-10-22T15:37:05.753Z,11.20
2022-10-22T15:39:34.736Z,11.20
2022-10-22T15:42:03.244Z,11.18
2022-10-22T15:44:32.444Z,11.18
2022-10-22T15:47:04.126Z,11.19
2022-10-22T15:49:32.512Z,11.20
2022-10-22T15:52:01.294Z,11.20
2022-10-22T15:54:30.805Z,11.20
2022-10-22T15:57:02.212Z,11.21
2022-10-22T15:59:30.964Z,11.08
2022-10-22T16:01:59.314Z,11.21
2022-10-22T16:04:27.881Z,11.22
2022-10-22T16:06:57.995Z,11.22
2022-10-22T16:09:27.627Z,11.23
2022-10-22T16:11:56.371Z,11.23
2022-10-22T16:14:24.878Z,11.24
2022-10-22T16:16:55.879Z,11.23
2022-10-22T16:19:25.538Z,11.22
2022-10-22T16:21:55.634Z,11.12
2022-10-22T16:24:24.115Z,11.01
2022-10-22T16:26:53.367Z,11.21
2022-10-22T16:29:21.715Z,11.21
2022-10-22T16:31:50.021Z,11.22
2022-10-22T16:34:18.394Z,11.23
2022-10-22T16:36:47.438Z,11.24
2022-10-22T16:39:16.674Z,11.26
2022-10-22T16:41:44.862Z,11.27
2022-10-22T16:44:14.518Z,11.28
2022-10-22T16:46:43.312Z,11.28
2022-10-22T16:49:12.178Z,11.29
2022-10-22T16:51:40.550Z,11.29
2022-10-22T16:54:12.524Z,11.29
2022-10-22T16:56:41.300Z,11.30
2022-10-22T16:59:09.670Z,11.29
2022-10-22T17:01:40.852Z,11.29
2022-10-22T17:04:10.325Z,11.30
2022-10-22T17:06:38.554Z,11.31
2022-10-22T17:09:07.062Z,11.31
2022-10-22T17:11:37.078Z,11.31
2022-10-22T17:14:07.185Z,11.31
2022-10-22T17:16:35.402Z,11.32
2022-10-22T17:19:04.496Z,11.33
2022-10-22T17:21:33.904Z,11.33
2022-10-22T17:24:02.053Z,11.34
2022-10-22T17:26:33.252Z,11.35
2022-10-22T17:29:01.825Z,11.35
2022-10-22T17:31:37.997Z,11.35
2022-10-22T17:34:08.417Z,11.28
2022-10-22T17:36:37.302Z,11.34
2022-10-22T17:39:07.917Z,11.35
2022-10-22T17:44:23.541Z,11.33
2022-10-22T17:46:51.870Z,11.33
2022-10-22T17:49:21.782Z,11.33
2022-10-22T17:51:50.457Z,11.34
2022-10-22T17:54:19.063Z,11.36
2022-10-22T17:56:48.117Z,11.39
2022-10-22T17:59:17.245Z,11.40
2022-10-22T18:01:47.073Z,11.34
2022-10-22T18:04:20.127Z,11.43
2022-10-22T18:06:49.116Z,11.43
2022-10-22T18:09:19.357Z,11.44
2022-10-22T18:11:50.494Z,11.45
2022-10-22T18:14:20.141Z,11.45
2022-10-22T18:16:49.204Z,11.45
2022-10-22T18:19:23.470Z,11.45
2022-10-22T18:21:52.051Z,11.47
2022-10-22T18:24:20.311Z,11.48
2022-10-22T18:26:48.549Z,11.49
2022-10-22T18:29:18.899Z,11.50
2022-10-22T18:31:48.535Z,11.44
2022-10-22T18:34:19.103Z,11.52
2022-10-22T18:36:50.012Z,11.52
2022-10-22T18:39:18.431Z,11.53
2022-10-22T18:41:46.700Z,11.53
2022-10-22T18:44:16.019Z,11.53
2022-10-22T18:46:44.220Z,11.54
2022-10-22T18:49:16.676Z,11.55
2022-10-22T18:51:48.765Z,11.55
2022-10-22T18:54:24.729Z,11.46
2022-10-22T18:57:00.597Z,11.54
2022-10-22T18:59:31.720Z,11.55
2022-10-22T19:02:00.861Z,11.55
2022-10-22T19:04:36.656Z,11.54
2022-10-22T19:07:05.869Z,11.54
2022-10-22T19:09:35.384Z,11.54
2022-10-22T19:12:03.848Z,11.47
2022-10-22T19:14:32.695Z,11.54
2022-10-22T19:17:00.950Z,11.53
2022-10-22T19:19:29.143Z,11.52
2022-10-22T19:21:59.716Z,11.51
2022-10-22T19:24:27.939Z,11.49
2022-10-22T19:26:55.999Z,11.48
2022-10-22T19:29:24.385Z,11.47
2022-10-22T19:31:53.015Z,11.46
2022-10-22T19:34:21.526Z,11.47
2022-10-22T19:36:51.903Z,11.47
2022-10-22T19:39:20.817Z,11.48
2022-10-22T19:41:48.984Z,11.50
2022-10-22T19:44:17.166Z,11.51
2022-10-22T19:46:45.426Z,11.51
2022-10-22T19:49:15.436Z,11.50
2022-10-22T19:51:44.995Z,11.50
2022-10-22T19:54:21.483Z,11.49
2022-10-22T19:56:50.311Z,11.48
2022-10-22T19:59:20.779Z,11.49
2022-10-22T20:01:49.230Z,11.49
2022-10-22T20:04:18.526Z,11.50
2022-10-22T20:06:47.074Z,11.50
2022-10-22T20:09:15.377Z,11.49
2022-10-22T20:11:44.402Z,11.49
2022-10-22T20:14:13.947Z,11.48
2022-10-22T20:16:42.966Z,11.49
2022-10-22T20:19:13.594Z,11.50
2022-10-22T20:21:43.262Z,11.50
2022-10-22T20:24:12.702Z,11.51
2022-10-22T20:26:41.138Z,11.52
2022-10-22T20:29:11.726Z,11.52
2022-10-22T20:31:40.842Z,11.52
2022-10-22T20:34:09.331Z,11.52
2022-10-22T20:36:37.643Z,11.54
2022-10-22T20:39:11.091Z,11.55
2022-10-22T20:41:40.678Z,11.57
2022-10-22T20:44:15.485Z,11.58
2022-10-22T20:46:44.030Z,11.59
2022-10-22T20:49:15.570Z,11.61
2022-10-22T20:51:44.335Z,11.62
2022-10-22T20:54:15.051Z,11.63
2022-10-22T20:56:43.763Z,11.65
2022-10-22T20:59:12.829Z,11.67
2022-10-22T21:01:49.680Z,11.67
2022-10-22T21:04:20.549Z,11.60
2022-10-22T21:06:50.464Z,11.70
2022-10-22T21:09:18.758Z,11.72
2022-10-22T21:11:47.831Z,11.74
2022-10-22T21:14:20.171Z,11.76
2022-10-22T21:16:50.603Z,11.78
2022-10-22T21:19:20.112Z,11.80
2022-10-22T21:21:48.907Z,11.81
2022-10-22T21:24:17.347Z,11.84
2022-10-22T21:26:45.591Z,11.85
2022-10-22T21:29:13.916Z,11.87
2022-10-22T21:31:42.186Z,11.82
2022-10-22T21:34:13.150Z,11.90
2022-10-22T21:36:41.505Z,11.92
2022-10-22T21:39:10.093Z,11.94
2022-10-22T21:41:38.482Z,11.96
2022-10-22T21:44:06.837Z,11.98
2022-10-22T21:46:35.185Z,11.99
2022-10-22T21:49:04.593Z,12.01
2022-10-22T21:51:35.630Z,12.02
2022-10-22T21:54:04.729Z,12.02
2022-10-22T21:56:35.373Z,12.00
2022-10-22T21:59:05.057Z,12.04
2022-10-22T22:01:34.129Z,12.06
2022-10-22T22:04:03.183Z,12.07
2022-10-22T22:06:33.497Z,11.99
2022-10-22T22:09:04.282Z,12.09
2022-10-22T22:11:33.054Z,11.97
2022-10-22T22:14:01.439Z,12.11
2022-10-22T22:16:32.809Z,12.13
2022-10-22T22:19:05.782Z,11.96
2022-10-22T22:21:36.254Z,12.15
2022-10-22T22:24:06.074Z,12.14
2022-10-22T22:26:34.811Z,12.15
2022-10-22T22:29:03.518Z,12.15
2022-10-22T22:31:34.129Z,12.15
2022-10-22T22:34:08.778Z,12.16
2022-10-22T22:36:39.731Z,12.16
2022-10-22T22:39:12.147Z,12.16
2022-10-22T22:41:41.832Z,12.16
2022-10-22T22:44:10.625Z,12.16
2022-10-22T22:46:39.178Z,12.17
2022-10-22T22:49:08.047Z,12.16
2022-10-22T22:51:36.558Z,12.15
2022-10-22T22:54:04.851Z,12.16
2022-10-22T22:56:34.784Z,12.15
2022-10-22T22:59:05.209Z,12.15
2022-10-22T23:01:38.851Z,12.15
2022-10-22T23:04:07.430Z,12.15
2022-10-22T23:06:37.866Z,12.13
2022-10-22T23:09:08.917Z,12.14
2022-10-22T23:11:37.671Z,12.10
2022-10-22T23:14:07.980Z,12.13
2022-10-22T23:16:38.174Z,12.13
2022-10-22T23:19:06.636Z,12.12
2022-10-22T23:21:38.403Z,12.12
2022-10-22T23:24:11.302Z,12.11
2022-10-22T23:26:45.449Z,12.09
2022-10-22T23:29:26.244Z,12.08
2022-10-22T23:31:55.641Z,12.01
2022-10-22T23:34:25.265Z,12.07
2022-10-22T23:36:54.498Z,12.07
2022-10-22T23:39:26.135Z,12.07
2022-10-22T23:41:55.304Z,12.07
2022-10-22T23:44:24.770Z,11.99
2022-10-22T23:46:53.067Z,12.00
2022-10-22T23:49:21.366Z,12.08
2022-10-22T23:51:49.359Z,12.09
2022-10-22T23:54:20.654Z,12.09
2022-10-22T23:56:48.703Z,12.10
2022-10-22T23:59:16.878Z,12.03
